Time;durP1;ratioP1;P1;durP2;ratioP2;P2;SDS_P1;SDS_P2;PMS_P1;PMS_P2;Temp;Humidity;BMP_temperature;BMP_pressure;BME280_temperature;BME280_humidity;BME280_pressure;Samples;Min_cycle;Max_cycle;Signal;HPM_P1;HPM_P2
2023/05/04 00:01:10;;;;;;;7.88;3.80;;;15.50;99.90;;;14.79;92.55;100772.03;4120242;28;20019;-74
2023/05/04 00:03:10;;;;;;;5.63;4.05;;;15.40;99.90;;;14.72;92.76;100774.59;4118946;28;20506;-74
2023/05/04 00:05:11;;;;;;;4.88;4.18;;;15.30;99.90;;;14.68;92.83;100781.28;4134819;28;20031;-74
2023/05/04 00:07:12;;;;;;;4.90;3.75;;;15.30;99.90;;;14.58;93.60;100774.56;4134885;28;20030;-74
2023/05/04 00:09:15;;;;;;;5.93;4.45;;;15.20;99.90;;;14.54;93.14;100781.25;4126299;28;20086;-73
2023/05/04 00:11:16;;;;;;;6.57;4.25;;;15.20;99.90;;;14.47;93.28;100775.00;4132586;28;20037;-74
2023/05/04 00:13:17;;;;;;;5.97;4.45;;;15.10;99.90;;;14.37;93.37;100765.47;4136066;28;20145;-73
2023/05/04 00:15:18;;;;;;;6.05;4.28;;;15.00;99.90;;;14.30;94.11;100764.53;4135088;28;20026;-74
2023/05/04 00:17:19;;;;;;;6.57;3.90;;;14.90;99.90;;;14.21;94.49;100764.78;4151104;28;20033;-74
2023/05/04 00:19:20;;;;;;;5.38;4.07;;;14.80;99.90;;;14.11;95.34;100762.34;4136237;28;20082;-74
2023/05/04 00:21:21;;;;;;;4.68;3.92;;;14.70;99.90;;;14.02;95.75;100744.03;4135003;28;20069;-74
2023/05/04 00:23:21;;;;;;;5.32;4.47;;;14.60;99.90;;;13.95;96.54;100733.31;4136292;28;20049;-74
2023/05/04 00:25:22;;;;;;;6.28;3.97;;;14.60;99.90;;;13.90;96.78;100735.66;4128003;28;20027;-73
2023/05/04 00:27:23;;;;;;;8.38;4.45;;;14.50;99.90;;;13.85;97.28;100727.44;4119977;28;20030;-74
2023/05/04 00:29:24;;;;;;;5.88;4.22;;;14.50;99.90;;;13.85;97.63;100722.13;4119616;28;20471;-73
2023/05/04 00:31:25;;;;;;;6.85;4.55;;;14.50;99.90;;;13.81;97.10;100715.53;4135055;28;20015;-74
2023/05/04 00:33:26;;;;;;;7.50;4.50;;;14.50;99.90;;;13.78;97.46;100707.91;4118928;28;20026;-74
2023/05/04 00:35:28;;;;;;;6.70;4.65;;;14.40;99.90;;;13.81;97.68;100710.22;4134830;28;20026;-73
2023/05/04 00:37:29;;;;;;;5.65;4.68;;;14.50;99.90;;;13.85;97.61;100708.88;4118540;28;20030;-73
2023/05/04 00:39:30;;;;;;;5.70;4.45;;;14.50;99.90;;;13.84;97.70;100705.38;4134911;28;20439;-73
2023/05/04 00:41:31;;;;;;;5.20;4.47;;;14.40;99.90;;;13.90;97.78;100703.84;4120118;28;20483;-73
2023/05/04 00:43:32;;;;;;;6.82;4.38;;;14.50;99.90;;;13.90;97.76;100687.09;4134393;28;20027;-74
2023/05/04 00:45:33;;;;;;;6.47;4.30;;;14.50;99.90;;;13.90;97.80;100679.16;4119582;28;20058;-73
2023/05/04 00:47:35;;;;;;;6.63;4.45;;;14.50;99.90;;;13.93;97.43;100665.53;4134877;28;20379;-74
2023/05/04 00:49:36;;;;;;;6.15;4.72;;;14.50;99.90;;;13.95;98.06;100658.25;4134848;28;20023;-74
2023/05/04 00:51:37;;;;;;;5.45;3.97;;;14.50;99.90;;;13.92;97.85;100648.78;4134749;28;20026;-73
2023/05/04 00:53:39;;;;;;;5.35;4.30;;;14.50;99.90;;;13.90;97.82;100650.81;4134753;28;20023;-73
2023/05/04 00:55:40;;;;;;;5.53;3.88;;;14.50;99.90;;;13.85;97.76;100653.19;4119891;28;20037;-73
2023/05/04 00:57:41;;;;;;;9.00;4.68;;;14.40;99.90;;;13.87;97.62;100669.72;4134750;28;20033;-74
2023/05/04 00:59:42;;;;;;;5.28;4.30;;;14.40;99.90;;;13.84;97.70;100672.75;4119556;28;20023;-73
2023/05/04 01:01:43;;;;;;;6.40;4.40;;;14.40;99.90;;;13.84;97.10;100678.88;4134606;28;20034;-73
2023/05/04 01:03:43;;;;;;;6.80;4.47;;;14.40;99.90;;;13.85;97.26;100671.75;4119755;28;20023;-73
2023/05/04 01:06:17;;;;;;;5.93;4.82;;;14.40;99.90;;;13.79;98.19;100669.81;4134416;28;20034;-73
2023/05/04 01:08:24;;;;;;;5.85;3.60;;;14.40;99.90;;;13.70;99.01;100660.28;4134304;28;20022;-73
2023/05/04 01:10:35;;;;;;;5.90;4.30;;;14.30;99.90;;;13.62;99.79;100661.16;4134845;28;20030;-73
2023/05/04 01:12:50;;;;;;;7.60;3.92;;;14.20;99.90;;;13.64;100.00;100660.97;4134572;28;20022;-74
2023/05/04 01:14:52;;;;;;;6.47;4.05;;;14.20;99.90;;;13.61;99.96;100653.38;4134283;28;20549;-73
2023/05/04 01:16:59;;;;;;;5.88;4.43;;;14.20;99.90;;;13.64;99.91;100642.44;4134789;28;20038;-73
2023/05/04 01:19:02;;;;;;;6.43;3.97;;;14.30;99.90;;;13.63;99.95;100643.41;4134539;28;20561;-74
2023/05/04 01:21:03;;;;;;;8.50;4.05;;;14.20;99.90;;;13.60;100.00;100638.47;4134260;28;20030;-74
2023/05/04 01:23:04;;;;;;;5.00;3.80;;;14.20;99.90;;;13.64;100.00;100653.88;4118576;28;20081;-73
2023/05/04 01:25:06;;;;;;;5.82;4.03;;;14.20;99.90;;;13.60;100.00;100655.22;4119417;28;20027;-73
2023/05/04 01:27:59;;;;;;;6.38;4.00;;;14.20;99.90;;;13.50;100.00;100662.56;4119592;28;20502;-73
2023/05/04 01:30:09;;;;;;;5.63;4.15;;;14.10;99.90;;;13.42;100.00;100657.31;4126122;28;20126;-73
2023/05/04 01:32:13;;;;;;;5.95;4.20;;;14.00;99.90;;;13.30;100.00;100653.44;4134349;28;20022;-73
2023/05/04 01:34:16;;;;;;;4.88;4.07;;;14.00;99.90;;;13.24;100.00;100654.13;4134324;28;20110;-73
2023/05/04 01:36:19;;;;;;;4.60;4.10;;;13.90;99.90;;;13.22;100.00;100662.28;4134522;28;20453;-73
2023/05/04 01:38:20;;;;;;;6.05;3.97;;;13.80;99.90;;;13.17;100.00;100661.94;4134446;28;20023;-73
2023/05/04 01:40:21;;;;;;;5.75;4.10;;;13.80;99.90;;;13.06;100.00;100648.25;4134390;28;20041;-73
2023/05/04 01:42:22;;;;;;;5.97;4.05;;;13.80;99.90;;;13.11;100.00;100662.66;4135783;28;20035;-73
2023/05/04 01:44:23;;;;;;;5.25;4.28;;;13.70;99.90;;;13.10;100.00;100674.25;4137042;28;20042;-73
2023/05/04 01:46:24;;;;;;;5.50;4.20;;;13.70;99.90;;;13.02;100.00;100668.16;4121167;28;20042;-73
2023/05/04 01:48:24;;;;;;;5.22;4.30;;;13.70;99.90;;;13.02;100.00;100674.25;4122403;28;20109;-73
2023/05/04 01:50:25;;;;;;;5.80;3.85;;;13.70;99.90;;;13.04;100.00;100671.44;4137216;28;20030;-73
2023/05/04 01:52:26;;;;;;;5.28;4.00;;;13.70;99.90;;;13.02;100.00;100670.81;4134305;28;20097;-73
2023/05/04 01:54:27;;;;;;;5.47;4.32;;;13.60;99.90;;;12.98;100.00;100678.25;4137300;28;20430;-73
2023/05/04 01:56:28;;;;;;;6.07;4.47;;;13.60;99.90;;;12.94;100.00;100674.28;4137054;28;20482;-73
2023/05/04 01:58:29;;;;;;;4.40;3.70;;;13.50;99.90;;;12.90;100.00;100665.06;4120608;28;20031;-73
2023/05/04 02:00:30;;;;;;;6.40;4.43;;;13.50;99.90;;;12.85;100.00;100658.63;4124378;28;20039;-74
2023/05/04 02:02:31;;;;;;;6.63;3.72;;;13.40;99.90;;;12.85;100.00;100664.75;4131616;28;20030;-73
2023/05/04 02:04:32;;;;;;;7.40;4.78;;;13.40;99.90;;;12.89;100.00;100650.16;4123837;28;20062;-73
2023/05/04 02:06:33;;;;;;;4.93;4.30;;;13.40;99.90;;;12.82;100.00;100633.31;4124159;28;20030;-73
2023/05/04 02:08:34;;;;;;;6.05;4.40;;;13.40;99.90;;;12.83;100.00;100645.56;4136971;28;20030;-73
2023/05/04 02:10:35;;;;;;;5.18;4.20;;;13.40;99.90;;;12.81;100.00;100636.16;4120904;28;20027;-73
2023/05/04 02:12:36;;;;;;;5.43;3.70;;;13.40;99.90;;;12.80;100.00;100637.97;4136983;28;20382;-73
2023/05/04 02:14:37;;;;;;;5.82;4.40;;;13.40;99.90;;;12.78;100.00;100632.84;4136414;28;20030;-73
2023/05/04 02:16:38;;;;;;;5.85;4.13;;;13.40;99.90;;;12.74;100.00;100622.78;4134326;28;20027;-73
2023/05/04 02:18:39;;;;;;;4.65;3.40;;;13.40;99.90;;;12.70;100.00;100614.34;4125901;28;20454;-73
2023/05/04 02:20:40;;;;;;;7.22;4.05;;;13.40;99.90;;;12.74;100.00;100604.25;4136694;28;20556;-73
2023/05/04 02:22:41;;;;;;;4.82;3.80;;;13.30;99.90;;;12.69;100.00;100617.19;4136752;28;20026;-73
2023/05/04 02:24:43;;;;;;;6.22;4.43;;;13.30;99.90;;;12.79;100.00;100623.06;4120546;28;20402;-73
2023/05/04 02:26:44;;;;;;;4.57;3.30;;;13.40;99.90;;;12.81;100.00;100620.28;4136708;28;20517;-73
2023/05/04 02:28:44;;;;;;;7.38;4.43;;;13.40;99.90;;;12.84;100.00;100615.47;4122656;28;20023;-74
2023/05/04 02:30:45;;;;;;;5.07;4.45;;;13.50;99.90;;;12.87;100.00;100615.13;4121768;28;20483;-73
2023/05/04 02:32:46;;;;;;;6.57;4.35;;;13.50;99.90;;;12.91;100.00;100599.69;4124969;28;20022;-74
2023/05/04 02:34:47;;;;;;;9.10;4.63;;;13.50;99.90;;;12.97;100.00;100610.41;4136459;28;20050;-73
2023/05/04 02:36:48;;;;;;;6.97;4.43;;;13.50;99.90;;;13.01;100.00;100606.41;4136315;28;20041;-73
2023/05/04 02:38:50;;;;;;;5.82;4.53;;;13.60;99.90;;;13.04;100.00;100611.38;4134149;28;20524;-73
2023/05/04 02:40:50;;;;;;;5.30;4.03;;;13.60;99.90;;;13.05;100.00;100618.28;4121796;28;20034;-74
2023/05/04 02:42:51;;;;;;;5.10;4.25;;;13.70;99.90;;;13.04;100.00;100608.72;4125871;28;20487;-73
2023/05/04 02:44:52;;;;;;;6.40;4.60;;;13.70;99.90;;;13.05;100.00;100605.06;4121146;28;20151;-73
2023/05/04 02:46:53;;;;;;;4.85;4.32;;;13.70;99.90;;;13.01;100.00;100595.00;4121178;28;20050;-73
2023/05/04 02:48:55;;;;;;;5.18;3.90;;;13.70;99.90;;;13.10;100.00;100607.22;4129562;28;20030;-73
2023/05/04 02:50:55;;;;;;;4.10;3.70;;;13.70;99.90;;;13.13;100.00;100604.22;4123706;28;20026;-73
2023/05/04 02:52:56;;;;;;;4.78;3.95;;;13.80;99.90;;;13.16;100.00;100611.81;4126672;28;20114;-73
2023/05/04 02:54:58;;;;;;;5.60;3.90;;;13.80;99.90;;;13.20;100.00;100624.53;4121032;28;20034;-73
2023/05/04 02:56:59;;;;;;;7.05;4.40;;;13.80;99.90;;;13.23;100.00;100632.13;4121070;28;20031;-73
2023/05/04 02:59:00;;;;;;;4.40;3.75;;;13.80;99.90;;;13.23;100.00;100640.06;4128172;28;20027;-73
2023/05/04 03:01:01;;;;;;;6.35;4.15;;;13.80;99.90;;;13.25;100.00;100640.72;4121384;28;20138;-73
2023/05/04 03:03:02;;;;;;;6.78;4.07;;;13.80;99.90;;;13.32;100.00;100647.97;4121032;28;20033;-73
2023/05/04 03:05:03;;;;;;;4.60;3.60;;;13.90;99.90;;;13.34;100.00;100648.63;4125059;28;20410;-73
2023/05/04 03:07:04;;;;;;;5.10;4.07;;;13.90;99.90;;;13.39;100.00;100646.25;4135990;28;20026;-73
2023/05/04 03:09:05;;;;;;;5.18;3.88;;;14.00;99.90;;;13.35;100.00;100631.72;4129485;28;20023;-73
2023/05/04 03:11:05;;;;;;;4.45;3.45;;;14.00;99.90;;;13.47;100.00;100648.88;4120953;28;20031;-73
2023/05/04 03:13:06;;;;;;;6.93;4.22;;;14.00;99.90;;;13.48;100.00;100634.59;4135636;28;20041;-74
2023/05/04 03:15:08;;;;;;;4.47;3.63;;;14.00;99.90;;;13.47;100.00;100638.25;4121079;28;20026;-73
2023/05/04 03:17:08;;;;;;;4.78;3.65;;;14.10;99.90;;;13.47;100.00;100640.91;4135921;28;20045;-73
2023/05/04 03:19:09;;;;;;;4.68;3.85;;;14.10;99.90;;;13.44;100.00;100630.66;4106994;28;20049;-73
2023/05/04 03:21:10;;;;;;;5.88;4.00;;;14.10;99.90;;;13.42;100.00;100636.13;4135696;28;20090;-73
2023/05/04 03:23:11;;;;;;;6.20;4.53;;;14.10;99.90;;;13.46;100.00;100658.63;4124425;28;20026;-73
2023/05/04 03:25:12;;;;;;;5.30;4.00;;;14.10;99.90;;;13.43;100.00;100652.84;4135693;28;20030;-73
2023/05/04 03:27:13;;;;;;;6.72;4.43;;;14.10;99.90;;;13.39;100.00;100648.91;4135637;28;20050;-73
2023/05/04 03:29:14;;;;;;;7.25;4.65;;;14.10;99.90;;;13.49;100.00;100670.69;4134258;28;20023;-73
2023/05/04 03:31:15;;;;;;;4.72;4.18;;;14.00;99.90;;;13.45;100.00;100662.28;4135412;28;20030;-73
2023/05/04 03:33:15;;;;;;;4.22;3.80;;;14.10;99.90;;;13.42;100.00;100662.63;4136846;28;20026;-73
2023/05/04 03:35:16;;;;;;;6.80;3.88;;;14.00;99.90;;;13.43;100.00;100666.09;4135614;28;20030;-73
2023/05/04 03:37:17;;;;;;;7.03;4.75;;;14.00;99.90;;;13.38;100.00;100676.41;4136715;28;20487;-73
2023/05/04 03:39:18;;;;;;;6.60;4.65;;;14.00;99.90;;;13.31;100.00;100694.84;4135561;28;20101;-73
2023/05/04 03:41:19;;;;;;;5.88;4.38;;;14.00;99.90;;;13.30;100.00;100707.25;4136762;28;20041;-73
2023/05/04 03:43:20;;;;;;;7.07;4.40;;;13.90;99.90;;;13.29;100.00;100710.88;4142227;28;20037;-73
2023/05/04 03:45:22;;;;;;;6.07;3.78;;;13.90;99.90;;;13.29;100.00;100720.66;4135311;28;20487;-73
2023/05/04 03:47:23;;;;;;;5.30;4.13;;;13.90;99.90;;;13.26;100.00;100723.69;4120345;28;20038;-73
2023/05/04 03:49:24;;;;;;;5.47;4.07;;;13.90;99.90;;;13.30;100.00;100728.44;4135269;28;20030;-73
2023/05/04 03:51:24;;;;;;;6.57;4.28;;;13.90;99.90;;;13.27;100.00;100720.84;4120378;28;20023;-73
2023/05/04 03:53:25;;;;;;;7.63;4.97;;;13.90;99.90;;;13.29;100.00;100721.47;4135324;28;20058;-73
2023/05/04 03:55:26;;;;;;;4.75;3.83;;;13.90;99.90;;;13.30;100.00;100723.16;4120249;28;20019;-73
2023/05/04 03:57:27;;;;;;;5.45;4.28;;;13.90;99.90;;;13.29;100.00;100697.63;4135340;28;20105;-73
2023/05/04 03:59:28;;;;;;;4.75;4.05;;;13.90;99.90;;;13.30;100.00;100686.06;4142190;28;20030;-73
2023/05/04 04:01:29;;;;;;;7.18;4.68;;;13.90;99.90;;;13.26;100.00;100699.84;4120176;28;20454;-73
2023/05/04 04:03:30;;;;;;;5.75;4.68;;;13.90;99.90;;;13.26;100.00;100729.78;4120123;28;20041;-73
2023/05/04 04:05:31;;;;;;;5.47;4.05;;;13.90;99.90;;;13.28;100.00;100714.56;4125132;28;20031;-73
2023/05/04 04:07:32;;;;;;;7.60;4.65;;;13.90;99.90;;;13.29;100.00;100718.84;4128620;28;20037;-73
2023/05/04 04:09:33;;;;;;;5.22;4.30;;;13.90;99.90;;;13.20;100.00;100706.63;4134725;28;20038;-73
2023/05/04 04:11:34;;;;;;;4.82;3.72;;;13.90;99.90;;;13.35;100.00;100732.41;4118919;28;20610;-73
2023/05/04 04:13:35;;;;;;;5.38;4.68;;;13.90;99.90;;;13.32;100.00;100716.84;4134838;28;20034;-73
2023/05/04 04:15:36;;;;;;;7.60;4.25;;;14.00;99.90;;;13.38;100.00;100682.50;4120212;28;20085;-73
2023/05/04 04:17:37;;;;;;;4.93;3.83;;;14.00;99.90;;;13.35;100.00;100640.47;4120879;28;20022;-73
2023/05/04 04:19:38;;;;;;;5.97;3.95;;;14.00;99.90;;;13.28;100.00;100605.94;4134947;28;20026;-74
2023/05/04 04:21:39;;;;;;;5.97;4.35;;;13.90;99.90;;;13.16;100.00;100578.22;4130633;28;20415;-74
2023/05/04 04:23:40;;;;;;;5.88;4.32;;;13.90;99.90;;;13.26;100.00;100605.28;4129531;28;20026;-74
2023/05/04 04:25:41;;;;;;;7.18;4.50;;;13.90;99.90;;;13.22;100.00;100569.56;4125319;28;20446;-74
2023/05/04 04:27:42;;;;;;;7.75;4.38;;;13.90;99.90;;;13.25;100.00;100563.09;4134894;28;20045;-74
2023/05/04 04:29:43;;;;;;;6.90;4.25;;;13.90;99.90;;;13.20;100.00;100576.03;4130497;28;20038;-74
2023/05/04 04:31:43;;;;;;;6.18;4.18;;;13.90;99.90;;;13.22;100.00;100587.28;4135133;28;20038;-74
2023/05/04 04:33:46;;;;;;;5.30;3.95;;;13.90;99.90;;;13.25;100.00;100603.66;4134730;28;20041;-74
2023/05/04 04:35:47;;;;;;;6.78;4.10;;;13.90;99.90;;;13.27;100.00;100617.53;4118704;28;20019;-74
2023/05/04 04:37:48;;;;;;;7.00;4.60;;;13.90;99.90;;;13.23;100.00;100597.69;4121540;28;20051;-74
2023/05/04 04:39:49;;;;;;;6.30;4.13;;;13.90;99.90;;;13.23;100.00;100579.13;4127776;28;20027;-73
2023/05/04 04:41:50;;;;;;;5.10;3.67;;;13.90;99.90;;;13.18;100.00;100586.78;4119690;28;20030;-73
2023/05/04 04:43:50;;;;;;;5.22;4.05;;;13.80;99.90;;;13.21;100.00;100589.09;4133955;28;20022;-74
2023/05/04 04:45:52;;;;;;;5.28;4.10;;;13.80;99.90;;;13.18;100.00;100559.47;4134705;28;20050;-74
2023/05/04 04:47:53;;;;;;;6.30;4.43;;;13.80;99.90;;;13.21;100.00;100556.47;4120954;28;20231;-74
2023/05/04 04:49:54;;;;;;;6.68;4.57;;;13.80;99.90;;;13.19;100.00;100539.94;4126117;28;20043;-73
2023/05/04 04:51:55;;;;;;;6.82;4.47;;;13.80;99.90;;;13.04;100.00;100562.88;4134741;28;20053;-74
2023/05/04 04:53:56;;;;;;;5.72;4.65;;;13.80;99.90;;;13.18;100.00;100586.78;4134784;28;20034;-73
2023/05/04 04:55:57;;;;;;;7.60;4.85;;;13.80;99.90;;;13.20;100.00;100584.00;4134811;28;20042;-74
2023/05/04 04:57:58;;;;;;;4.80;4.25;;;13.80;99.90;;;13.22;100.00;100576.69;4136887;28;20027;-73
2023/05/04 04:59:59;;;;;;;6.20;4.25;;;13.80;99.90;;;13.22;100.00;100569.56;4134645;28;20034;-74
2023/05/04 05:02:00;;;;;;;5.82;4.03;;;13.90;99.90;;;13.21;100.00;100575.84;4135863;28;20463;-73
2023/05/04 05:04:01;;;;;;;5.95;4.75;;;13.80;99.90;;;13.18;100.00;100583.31;4134818;28;20058;-73
2023/05/04 05:06:02;;;;;;;6.38;4.53;;;13.80;99.90;;;13.14;100.00;100582.84;4126590;28;20035;-73
2023/05/04 05:08:03;;;;;;;8.25;5.35;;;13.80;99.90;;;13.16;100.00;100586.16;4132265;28;20498;-73
2023/05/04 05:10:05;;;;;;;6.40;4.32;;;13.80;99.90;;;13.18;100.00;100585.97;4118495;28;20515;-73
2023/05/04 05:12:06;;;;;;;8.52;5.28;;;13.80;99.90;;;13.20;100.00;100590.09;4129693;28;20050;-73
2023/05/04 05:14:07;;;;;;;6.85;5.20;;;13.80;99.90;;;13.21;100.00;100586.44;4119442;28;20038;-74
2023/05/04 05:16:08;;;;;;;6.47;4.95;;;13.80;99.90;;;13.15;100.00;100560.66;4119635;28;20094;-73
2023/05/04 05:18:09;;;;;;;7.72;5.40;;;13.80;99.90;;;13.25;100.00;100582.44;4137340;28;20122;-73
2023/05/04 05:20:10;;;;;;;7.57;5.18;;;13.90;99.90;;;13.21;100.00;100597.03;4122799;28;20034;-73
2023/05/04 05:22:11;;;;;;;6.53;5.03;;;13.90;99.90;;;13.25;100.00;100603.66;4122758;28;20402;-73
2023/05/04 05:24:12;;;;;;;7.00;5.03;;;13.90;99.90;;;13.27;100.00;100588.38;4122447;28;20033;-73
2023/05/04 05:26:13;;;;;;;6.20;4.60;;;13.90;99.90;;;13.35;100.00;100597.28;4137147;28;20042;-74
2023/05/04 05:28:14;;;;;;;6.20;4.68;;;13.90;99.90;;;13.32;100.00;100621.47;4126695;28;20018;-73
2023/05/04 05:30:15;;;;;;;6.03;4.18;;;14.00;99.90;;;13.40;100.00;100653.22;4128454;28;20089;-73
2023/05/04 05:32:16;;;;;;;9.27;4.93;;;14.00;99.90;;;13.43;100.00;100659.00;4117913;28;20042;-73
2023/05/04 05:34:17;;;;;;;6.05;5.00;;;14.00;99.90;;;13.41;100.00;100671.56;4137315;28;20506;-73
2023/05/04 05:36:18;;;;;;;5.82;4.35;;;14.10;99.90;;;13.45;100.00;100656.97;4121404;28;20380;-74
2023/05/04 05:38:19;;;;;;;6.72;4.93;;;14.10;99.90;;;13.49;100.00;100670.69;4127190;28;20037;-73
2023/05/04 05:40:21;;;;;;;6.38;4.47;;;14.20;99.90;;;13.51;100.00;100676.63;4125917;28;20042;-74
2023/05/04 05:42:22;;;;;;;5.88;4.10;;;14.10;99.90;;;13.51;100.00;100682.78;4120808;28;20062;-74
2023/05/04 05:44:23;;;;;;;6.47;4.75;;;14.10;99.90;;;13.48;100.00;100692.88;4122128;28;20035;-74
2023/05/04 05:46:24;;;;;;;7.57;5.32;;;14.10;99.90;;;13.44;100.00;100689.75;4136984;28;20042;-74
2023/05/04 05:48:25;;;;;;;7.32;4.65;;;14.10;99.90;;;13.44;100.00;100728.72;4122237;28;20110;-73
2023/05/04 05:50:26;;;;;;;8.32;4.95;;;14.10;99.90;;;13.47;100.00;100749.56;4120809;28;20022;-74
2023/05/04 05:52:26;;;;;;;5.30;4.55;;;14.10;99.90;;;13.47;100.00;100745.06;4122241;28;20034;-73
2023/05/04 05:54:30;;;;;;;6.57;5.25;;;14.10;99.90;;;13.46;100.00;100750.56;4122179;28;20038;-74
2023/05/04 05:56:31;;;;;;;7.15;5.50;;;14.10;99.90;;;13.49;100.00;100758.97;4136992;28;20030;-73
2023/05/04 05:58:32;;;;;;;8.23;5.38;;;14.10;99.90;;;13.45;100.00;100755.03;4121798;28;20034;-74
2023/05/04 06:00:33;;;;;;;9.35;6.15;;;14.10;99.90;;;13.44;100.00;100741.97;4137118;28;20034;-74
2023/05/04 06:02:34;;;;;;;7.15;5.53;;;14.00;99.90;;;13.44;100.00;100713.59;4121003;28;20041;-74
2023/05/04 06:04:35;;;;;;;8.98;6.15;;;14.00;99.90;;;13.39;100.00;100728.38;4124246;28;20031;-74
2023/05/04 06:06:36;;;;;;;10.15;6.53;;;14.00;99.90;;;13.35;100.00;100717.31;4124883;28;20451;-73
2023/05/04 06:08:37;;;;;;;7.60;5.80;;;14.00;99.90;;;13.33;100.00;100727.25;4138146;28;20073;-73
2023/05/04 06:10:38;;;;;;;9.43;6.10;;;14.00;99.90;;;13.36;100.00;100712.84;4138062;28;20487;-74
2023/05/04 06:12:39;;;;;;;6.10;5.50;;;14.00;99.90;;;13.38;100.00;100709.00;4136942;28;20033;-74
2023/05/04 06:14:40;;;;;;;7.63;6.05;;;14.00;99.90;;;13.27;100.00;100674.97;4133774;28;20034;-74
2023/05/04 06:16:40;;;;;;;10.25;5.63;;;14.00;99.90;;;13.38;100.00;100671.91;4134356;28;20023;-73
2023/05/04 06:18:41;;;;;;;7.47;6.15;;;14.00;99.90;;;13.46;100.00;100663.09;4136843;28;20026;-74
2023/05/04 06:20:43;;;;;;;7.38;5.82;;;14.00;99.90;;;13.56;100.00;100706.91;4121820;28;20023;-74
2023/05/04 06:22:43;;;;;;;8.57;5.93;;;14.10;99.90;;;13.78;100.00;100731.78;4136584;28;20042;-73
2023/05/04 06:24:45;;;;;;;8.18;5.72;;;14.20;99.90;;;13.94;100.00;100710.47;4136306;28;20034;-73
2023/05/04 06:26:46;;;;;;;7.70;5.43;;;14.30;99.90;;;14.31;100.00;100713.09;4121769;28;20061;-73
2023/05/04 06:28:47;;;;;;;8.70;6.10;;;14.60;99.90;;;14.53;100.00;100722.03;4119886;28;20034;-73
2023/05/04 06:30:48;;;;;;;8.10;6.38;;;14.80;99.90;;;14.66;100.00;100742.66;4129466;28;20018;-73
2023/05/04 06:32:49;;;;;;;7.35;5.22;;;15.00;99.90;;;14.64;100.00;100705.63;4127341;28;20581;-73
2023/05/04 06:34:58;;;;;;;5.68;5.00;;;15.10;99.90;;;14.71;100.00;100734.94;4120494;28;20107;-73
2023/05/04 06:36:59;;;;;;;6.50;4.82;;;15.20;99.90;;;14.64;100.00;100756.09;4121454;28;20027;-73
2023/05/04 06:39:00;;;;;;;10.75;6.03;;;15.20;99.90;;;14.58;100.00;100767.44;4136233;28;20026;-73
2023/05/04 06:41:01;;;;;;;8.90;6.05;;;15.20;99.90;;;14.66;100.00;100774.50;4126257;28;20018;-74
2023/05/04 06:43:01;;;;;;;7.03;5.50;;;15.20;99.90;;;14.76;100.00;100785.66;4136089;28;20045;-74
2023/05/04 06:45:03;;;;;;;10.05;6.20;;;15.30;99.90;;;14.83;100.00;100789.25;4120254;28;20037;-74
2023/05/04 06:47:06;;;;;;;7.13;5.72;;;15.40;99.90;;;14.86;100.00;100800.34;4119813;28;20059;-74
2023/05/04 06:49:07;;;;;;;6.80;5.85;;;15.40;99.90;;;14.83;100.00;100821.13;4124965;28;20015;-73
2023/05/04 06:51:08;;;;;;;8.50;5.93;;;15.40;99.90;;;14.87;100.00;100807.28;4136229;28;20437;-74
2023/05/04 06:53:10;;;;;;;9.20;6.20;;;15.40;99.90;;;14.92;100.00;100796.13;4137416;28;20034;-74
2023/05/04 06:55:12;;;;;;;6.82;5.95;;;15.50;99.90;;;14.90;100.00;100766.28;4137350;28;20065;-73
2023/05/04 06:57:13;;;;;;;8.35;5.60;;;15.50;99.90;;;14.85;100.00;100750.88;4136344;28;20477;-73
2023/05/04 06:59:15;;;;;;;8.30;6.13;;;15.50;99.90;;;14.69;100.00;100768.84;4135993;28;20030;-73
2023/05/04 07:01:16;;;;;;;9.38;6.18;;;15.40;99.90;;;14.64;100.00;100765.88;4127016;28;20077;-74
2023/05/04 07:03:17;;;;;;;8.25;5.72;;;15.30;99.90;;;14.54;100.00;100775.94;4135601;28;20510;-74
2023/05/04 07:05:22;;;;;;;9.35;6.38;;;15.20;99.90;;;14.55;100.00;100804.13;4135813;28;20038;-74
2023/05/04 07:07:22;;;;;;;10.13;6.45;;;15.20;99.90;;;14.54;100.00;100786.56;4137102;28;20042;-73
2023/05/04 07:09:23;;;;;;;6.78;6.07;;;15.20;99.90;;;14.64;100.00;100797.72;4136120;28;20026;-73
2023/05/04 07:11:25;;;;;;;8.00;5.55;;;15.20;99.90;;;14.72;100.00;100803.81;4135250;28;20534;-73
2023/05/04 07:13:27;;;;;;;7.32;5.70;;;15.30;99.90;;;14.83;100.00;100784.78;4126197;28;20019;-74
2023/05/04 07:15:28;;;;;;;9.77;6.80;;;15.40;99.90;;;15.11;100.00;100787.63;4135206;28;20034;-75
2023/05/04 07:17:31;;;;;;;7.07;5.63;;;15.60;99.90;;;15.35;100.00;100789.94;4151531;28;20034;-74
2023/05/04 07:19:32;;;;;;;9.35;6.30;;;15.80;99.90;;;15.48;100.00;100797.31;4135180;28;20034;-75
2023/05/04 07:21:33;;;;;;;8.30;5.60;;;16.00;99.90;;;15.55;100.00;100818.66;4115988;28;20038;-74
2023/05/04 07:23:33;;;;;;;7.00;5.97;;;16.10;99.90;;;15.59;100.00;100812.75;4129840;28;20094;-74
2023/05/04 07:25:34;;;;;;;12.30;5.72;;;16.10;99.90;;;15.67;100.00;100825.16;4119820;28;20491;-75
2023/05/04 07:27:35;;;;;;;8.73;6.72;;;16.20;99.90;;;15.82;100.00;100824.09;4135150;28;20092;-75
2023/05/04 07:29:36;;;;;;;7.90;5.38;;;16.30;99.90;;;15.92;100.00;100827.25;4118650;28;20027;-74
2023/05/04 07:31:37;;;;;;;10.75;5.80;;;16.40;99.90;;;15.96;100.00;100817.06;4134815;28;20030;-74
2023/05/04 07:33:39;;;;;;;9.73;5.10;;;16.50;99.90;;;16.11;100.00;100815.19;4135120;28;20022;-74
2023/05/04 07:35:40;;;;;;;8.68;5.65;;;16.60;99.90;;;16.15;100.00;100820.94;4134969;28;20379;-73
2023/05/04 07:37:41;;;;;;;11.70;6.68;;;16.60;99.90;;;16.15;100.00;100821.78;4134979;28;20029;-73
2023/05/04 07:39:42;;;;;;;11.48;4.65;;;16.70;99.90;;;16.25;100.00;100821.44;4134370;28;20479;-73
2023/05/04 07:41:43;;;;;;;11.05;5.07;;;16.70;99.90;;;16.28;100.00;100821.88;4125575;28;20480;-73
2023/05/04 07:43:44;;;;;;;8.45;4.30;;;16.80;99.90;;;16.36;100.00;100824.44;4134562;28;20469;-73
2023/05/04 07:45:44;;;;;;;10.50;4.95;;;16.80;99.90;;;16.36;100.00;100824.44;4134627;28;20041;-73
2023/05/04 07:47:45;;;;;;;11.52;4.75;;;16.80;99.90;;;16.37;100.00;100826.06;4130298;28;20039;-73
2023/05/04 07:49:46;;;;;;;15.18;4.55;;;16.80;99.90;;;16.36;100.00;100831.59;4119110;28;20562;-73
2023/05/04 07:51:47;;;;;;;10.90;3.85;;;16.80;99.90;;;16.40;100.00;100836.34;4135214;28;20069;-73
2023/05/04 07:53:48;;;;;;;14.98;4.22;;;16.80;99.90;;;16.39;100.00;100832.03;4120306;28;20557;-73
2023/05/04 07:55:49;;;;;;;14.40;4.13;;;16.90;99.90;;;16.58;100.00;100828.75;4135384;28;20035;-73
2023/05/04 07:57:50;;;;;;;10.00;3.75;;;17.00;99.90;;;16.72;100.00;100840.34;4119103;28;20026;-73
2023/05/04 07:59:55;;;;;;;9.57;3.38;;;17.10;99.90;;;16.67;100.00;100840.06;4120321;28;20031;-73
2023/05/04 08:01:56;;;;;;;13.73;3.95;;;17.10;99.90;;;16.61;100.00;100835.50;4134754;28;20034;-73
2023/05/04 08:03:57;;;;;;;8.48;2.85;;;17.10;99.90;;;16.41;100.00;100838.00;4120315;28;20035;-73
2023/05/04 08:05:58;;;;;;;7.00;3.15;;;17.00;99.90;;;16.26;100.00;100839.06;4125744;28;20506;-73
2023/05/04 08:07:59;;;;;;;14.32;3.40;;;16.90;99.90;;;16.10;100.00;100845.47;4118909;28;20034;-73
2023/05/04 08:09:59;;;;;;;7.88;3.40;;;16.80;99.90;;;16.08;100.00;100847.50;4119727;28;20023;-73
2023/05/04 08:12:01;;;;;;;7.20;2.78;;;16.70;99.90;;;16.18;100.00;100845.34;4134733;28;20534;-73
2023/05/04 08:14:02;;;;;;;8.10;3.13;;;16.70;99.90;;;16.27;100.00;100843.38;4118623;28;20118;-73
2023/05/04 08:16:03;;;;;;;7.43;2.40;;;16.80;99.90;;;16.43;100.00;100843.09;4129675;28;20054;-73
2023/05/04 08:18:05;;;;;;;7.22;2.58;;;16.90;99.90;;;16.53;100.00;100857.75;4134823;28;20121;-73
2023/05/04 08:20:08;;;;;;;7.50;2.15;;;17.00;99.90;;;16.56;100.00;100843.28;4134984;28;20045;-73
2023/05/04 08:22:09;;;;;;;5.43;1.52;;;17.10;99.90;;;16.68;100.00;100848.88;4135023;28;20023;-73